createdAt,value
2023-02-22T00:02:27.215Z,101676.66
2023-02-22T00:04:55.967Z,101680.97
2023-02-22T00:07:24.974Z,101693.56
2023-02-22T00:09:53.469Z,101675.81
2023-02-22T00:12:23.224Z,101667.81
2023-02-22T00:14:51.893Z,101650.25
2023-02-22T00:17:20.920Z,101685.84
2023-02-22T00:19:50.638Z,101675.03
2023-02-22T00:22:20.662Z,101693.56
2023-02-22T00:24:50.445Z,101694.34
2023-02-22T00:27:18.936Z,101696.69
2023-02-22T00:29:49.177Z,101691.38
2023-02-22T00:32:17.685Z,101679.34
2023-02-22T00:34:46.063Z,101689.25
2023-02-22T00:37:14.542Z,101685.66
2023-02-22T00:39:43.090Z,101657.75
2023-02-22T00:42:11.535Z,101687.03
2023-02-22T00:44:40.078Z,101688.84
2023-02-22T00:47:10.559Z,101671.50
2023-02-22T00:49:39.284Z,101690.44
2023-02-22T00:52:09.230Z,101674.56
2023-02-22T00:54:37.756Z,101678.34
2023-02-22T00:57:06.150Z,101682.16
2023-02-22T00:59:34.662Z,101680.00
2023-02-22T01:02:03.166Z,101668.53
2023-02-22T01:04:33.149Z,101653.97
2023-02-22T01:07:01.607Z,101676.66
2023-02-22T01:09:30.053Z,101652.78
2023-02-22T01:11:58.810Z,101676.00
2023-02-22T01:14:28.237Z,101648.22
2023-02-22T01:16:57.847Z,101643.66
2023-02-22T01:19:26.321Z,101678.66
2023-02-22T01:21:56.198Z,101683.16
2023-02-22T01:24:24.567Z,101666.81
2023-02-22T01:26:55.290Z,101650.00
2023-02-22T01:29:23.740Z,101665.28
2023-02-22T01:31:55.617Z,101636.22
2023-02-22T01:34:26.013Z,101657.28
2023-02-22T01:36:56.734Z,101664.72
2023-02-22T01:39:25.327Z,101612.94
2023-02-22T01:41:54.609Z,101649.81
2023-02-22T01:44:30.805Z,101628.16
2023-02-22T01:47:03.199Z,101629.38
2023-02-22T01:49:36.660Z,101611.78
2023-02-22T01:52:10.692Z,101640.34
2023-02-22T01:54:43.458Z,101630.72
2023-02-22T01:57:19.058Z,101632.00
2023-02-22T01:59:52.545Z,101629.44
2023-02-22T02:02:25.342Z,101600.19
2023-02-22T02:04:57.447Z,101631.28
2023-02-22T02:07:29.903Z,101621.78
2023-02-22T02:10:01.388Z,101591.53
2023-02-22T02:12:33.670Z,101623.47
2023-02-22T02:15:22.857Z,101612.97
2023-02-22T02:17:56.593Z,101575.56
2023-02-22T02:20:35.192Z,101603.03
2023-02-22T02:23:25.478Z,101606.59
2023-02-22T02:26:30.328Z,101607.06
2023-02-22T02:29:28.767Z,101594.09
2023-02-22T02:32:23.650Z,101574.69
2023-02-22T02:35:03.088Z,101599.44
2023-02-22T02:37:42.210Z,101581.78
2023-02-22T02:40:21.852Z,101598.69
2023-02-22T02:43:01.290Z,101562.72
2023-02-22T02:45:38.337Z,101585.16
2023-02-22T02:48:13.964Z,101562.97
2023-02-22T02:50:48.013Z,101568.22
2023-02-22T02:53:22.288Z,101580.47
2023-02-22T02:55:51.515Z,101567.34
2023-02-22T02:58:24.333Z,101580.25
2023-02-22T03:00:59.771Z,101579.31
2023-02-22T03:04:08.285Z,101564.09
2023-02-22T03:07:07.083Z,101578.31
2023-02-22T03:09:49.910Z,101527.16
2023-02-22T03:12:34.368Z,101550.66
2023-02-22T03:15:21.877Z,101556.81
2023-02-22T03:18:02.292Z,101521.25
2023-02-22T03:20:43.260Z,101546.38
2023-02-22T03:23:24.783Z,101532.66
2023-02-22T03:25:59.400Z,101540.91
2023-02-22T03:28:31.285Z,101524.22
2023-02-22T03:31:07.148Z,101516.94
2023-02-22T03:33:43.662Z,101496.63
2023-02-22T03:36:17.999Z,101521.53
2023-02-22T03:38:48.897Z,101505.84
2023-02-22T03:41:24.046Z,101519.81
2023-02-22T03:43:59.711Z,101512.66
2023-02-22T03:46:30.607Z,101489.03
2023-02-22T03:49:06.494Z,101502.47
2023-02-22T03:51:40.750Z,101495.81
2023-02-22T03:54:16.429Z,101420.59
2023-02-22T03:56:54.355Z,101488.38
2023-02-22T03:59:27.749Z,101490.03
2023-02-22T04:01:57.498Z,101472.44
2023-02-22T04:04:26.848Z,101469.63
2023-02-22T04:06:57.038Z,101477.97
2023-02-22T04:09:26.335Z,101445.44
2023-02-22T04:11:54.953Z,101473.84
2023-02-22T04:14:23.975Z,101469.50
2023-02-22T04:16:52.639Z,101465.34
2023-02-22T04:19:21.146Z,101460.16
2023-02-22T04:21:51.382Z,101457.31
2023-02-22T04:24:25.625Z,101451.22
2023-02-22T04:26:55.695Z,101440.38
2023-02-22T04:29:24.866Z,101431.44
2023-02-22T04:31:53.301Z,101435.47
2023-02-22T04:34:22.018Z,101465.75
2023-02-22T04:36:50.885Z,101466.41
2023-02-22T04:39:19.539Z,101457.38
2023-02-22T04:41:49.710Z,101468.81
2023-02-22T04:44:18.394Z,101458.63
2023-02-22T04:46:47.081Z,101462.72
2023-02-22T04:49:17.315Z,101441.00
2023-02-22T04:51:47.335Z,101470.28
2023-02-22T04:54:17.664Z,101464.00
2023-02-22T04:56:50.022Z,101455.63
2023-02-22T04:59:19.885Z,101460.78
2023-02-22T05:01:55.143Z,101457.38
2023-02-22T05:04:24.812Z,101452.25
2023-02-22T05:06:55.076Z,101444.72
2023-02-22T05:09:23.645Z,101453.31
2023-02-22T05:11:53.478Z,101438.28
2023-02-22T05:14:22.869Z,101417.38
2023-02-22T05:16:51.332Z,101440.47
2023-02-22T05:19:19.718Z,101430.84
2023-02-22T05:21:48.085Z,101421.19
2023-02-22T05:24:16.906Z,101388.09
2023-02-22T05:26:46.311Z,101434.06
2023-02-22T05:29:16.200Z,101415.97
2023-02-22T05:31:44.760Z,101414.31
2023-02-22T05:34:14.530Z,101400.34
2023-02-22T05:36:42.976Z,101419.94
2023-02-22T05:39:12.230Z,101413.81
2023-02-22T05:41:40.655Z,101406.03
2023-02-22T05:44:09.072Z,101409.63
2023-02-22T05:46:39.001Z,101406.22
2023-02-22T05:49:07.705Z,101389.19
2023-02-22T05:51:36.146Z,101404.28
2023-02-22T05:54:04.937Z,101388.47
2023-02-22T05:56:33.560Z,101401.81
2023-02-22T05:59:02.169Z,101358.56
2023-02-22T06:01:30.519Z,101372.97
2023-02-22T06:04:00.356Z,101381.78
2023-02-22T06:06:28.773Z,101369.06
2023-02-22T06:08:57.243Z,101372.66
2023-02-22T06:11:25.676Z,101349.63
2023-02-22T06:13:55.065Z,101345.09
2023-02-22T06:16:24.158Z,101355.69
2023-02-22T06:18:52.722Z,101359.22
2023-02-22T06:21:22.620Z,101349.59
2023-02-22T06:23:51.152Z,101349.63
2023-02-22T06:26:21.155Z,101334.63
2023-02-22T06:28:50.300Z,101347.75
2023-02-22T06:31:19.130Z,101346.22
2023-02-22T06:33:47.833Z,101348.59
2023-02-22T06:36:16.428Z,101354.56
2023-02-22T06:38:46.319Z,101326.03
2023-02-22T06:41:15.841Z,101340.28
2023-02-22T06:43:44.537Z,101343.66
2023-02-22T06:46:14.048Z,101355.47
2023-02-22T06:48:43.097Z,101352.88
2023-02-22T06:51:11.917Z,101347.81
2023-02-22T06:53:40.410Z,101371.34
2023-02-22T06:56:10.432Z,101376.78
2023-02-22T06:58:39.022Z,101368.84
2023-02-22T07:01:08.332Z,101337.59
2023-02-22T07:03:37.116Z,101380.16
2023-02-22T07:06:08.306Z,101381.06
2023-02-22T07:08:36.740Z,101381.06
2023-02-22T07:11:05.653Z,101376.84
2023-02-22T07:13:35.455Z,101365.25
2023-02-22T07:16:03.962Z,101370.69
2023-02-22T07:18:32.706Z,101366.25
2023-02-22T07:21:01.396Z,101386.56
2023-02-22T07:23:29.951Z,101385.00
2023-02-22T07:26:01.569Z,101379.06
2023-02-22T07:28:30.156Z,101386.41
2023-02-22T07:31:01.464Z,101381.00
2023-02-22T07:33:30.020Z,101385.31
2023-02-22T07:35:58.558Z,101390.75
2023-02-22T07:38:27.103Z,101396.22
2023-02-22T07:40:57.855Z,101388.38
2023-02-22T07:43:27.801Z,101389.25
2023-02-22T07:46:00.797Z,101398.50
2023-02-22T07:48:31.852Z,101406.22
2023-02-22T07:51:00.760Z,101402.06
2023-02-22T07:53:33.399Z,101384.63
2023-02-22T07:56:05.181Z,101391.13
2023-02-22T07:58:35.472Z,101395.97
2023-02-22T08:01:06.031Z,101379.41
2023-02-22T08:03:38.224Z,101361.94
2023-02-22T08:06:09.267Z,101370.41
2023-02-22T08:08:38.209Z,101367.88
2023-02-22T08:11:06.882Z,101344.84
2023-02-22T08:13:37.173Z,101368.09
2023-02-22T08:16:07.584Z,101367.41
2023-02-22T08:18:38.430Z,101381.72
2023-02-22T08:21:07.244Z,101378.31
2023-02-22T08:23:36.052Z,101374.16
2023-02-22T08:26:10.893Z,101351.41
2023-02-22T08:28:39.467Z,101358.53
2023-02-22T08:31:09.678Z,101366.91
2023-02-22T08:33:38.077Z,101327.06
2023-02-22T08:36:09.835Z,101351.09
2023-02-22T08:38:38.406Z,101354.78
2023-02-22T08:41:06.951Z,101348.88
2023-02-22T08:43:35.716Z,101345.66
2023-02-22T08:46:04.192Z,101336.13
2023-02-22T08:48:34.142Z,101336.31
2023-02-22T08:51:02.974Z,101326.91
2023-02-22T08:53:33.232Z,101294.63
2023-02-22T08:56:01.680Z,101278.75
2023-02-22T08:58:30.100Z,101303.59
2023-02-22T09:00:58.531Z,101300.75
2023-02-22T09:03:27.213Z,101303.81
2023-02-22T09:05:59.549Z,101296.97
2023-02-22T09:08:28.214Z,101311.53
2023-02-22T09:10:56.677Z,101307.34
2023-02-22T09:13:25.151Z,101286.72
2023-02-22T09:15:53.561Z,101290.47
2023-02-22T09:18:21.999Z,101286.25
2023-02-22T09:20:50.397Z,101286.44
2023-02-22T09:23:21.733Z,101292.91
2023-02-22T09:25:50.765Z,101306.22
2023-02-22T09:28:19.542Z,101290.44
2023-02-22T09:30:48.313Z,101301.25
2023-02-22T09:33:20.185Z,101300.38
2023-02-22T09:35:50.874Z,101294.47
2023-02-22T09:38:24.876Z,101276.28
2023-02-22T09:41:02.980Z,101295.00
2023-02-22T09:43:42.997Z,101279.91
2023-02-22T09:46:24.362Z,101298.72
2023-02-22T09:49:03.562Z,101300.13
2023-02-22T09:51:41.321Z,101301.28
2023-02-22T09:54:23.119Z,101309.31
2023-02-22T09:56:57.968Z,101306.69
2023-02-22T09:59:32.911Z,101290.31
2023-02-22T10:02:15.105Z,101282.78
2023-02-22T10:04:49.963Z,101296.00
2023-02-22T10:07:26.151Z,101288.78
2023-02-22T10:09:58.570Z,101296.63
2023-02-22T10:12:38.506Z,101268.31
2023-02-22T10:15:37.145Z,101280.91
2023-02-22T10:18:37.225Z,101274.84
2023-02-22T10:21:14.886Z,101294.94
2023-02-22T10:23:56.460Z,101286.16
2023-02-22T10:26:30.654Z,101274.78
2023-02-22T10:29:04.837Z,101289.19
2023-02-22T10:31:38.373Z,101286.31
2023-02-22T10:34:15.390Z,101288.09
2023-02-22T10:36:45.097Z,101276.41
2023-02-22T10:39:27.377Z,101289.84
2023-02-22T10:42:06.182Z,101299.38
2023-02-22T10:44:35.179Z,101290.59
2023-02-22T10:47:07.176Z,101298.06
2023-02-22T10:49:41.286Z,101291.16
2023-02-22T10:52:19.490Z,101298.81
2023-02-22T10:54:51.827Z,101290.25
2023-02-22T10:57:26.561Z,101289.13
2023-02-22T10:59:57.927Z,101279.78
2023-02-22T11:02:31.306Z,101284.88
2023-02-22T11:05:02.265Z,101264.59
2023-02-22T11:07:33.284Z,101287.75
2023-02-22T11:10:05.009Z,101282.66
2023-02-22T11:12:37.614Z,101268.09
2023-02-22T11:15:30.078Z,101267.31
2023-02-22T11:18:01.888Z,101280.28
2023-02-22T11:20:35.492Z,101274.25
2023-02-22T11:23:08.208Z,101253.97
2023-02-22T11:25:40.218Z,101264.84
2023-02-22T11:28:17.634Z,101242.56
2023-02-22T11:30:52.182Z,101229.63
2023-02-22T11:33:24.870Z,101254.47
2023-02-22T11:35:55.744Z,101248.50
2023-02-22T11:38:26.650Z,101234.25
2023-02-22T11:41:16.797Z,101237.78
2023-02-22T11:43:52.354Z,101222.47
2023-02-22T11:46:23.152Z,101217.97
2023-02-22T11:49:01.616Z,101233.19
2023-02-22T11:51:46.402Z,101218.66
2023-02-22T11:54:46.300Z,101226.00
2023-02-22T11:57:36.212Z,101212.03
2023-02-22T12:00:24.649Z,101211.13
2023-02-22T12:03:18.756Z,101186.59
2023-02-22T12:06:03.150Z,101196.41
2023-02-22T12:08:52.301Z,101192.81
2023-02-22T12:11:28.813Z,101193.72
2023-02-22T12:14:12.956Z,101188.53
2023-02-22T12:17:06.522Z,101181.44
2023-02-22T12:19:39.119Z,101168.28
2023-02-22T12:22:14.461Z,101191.97
2023-02-22T12:24:48.918Z,101202.47
2023-02-22T12:27:27.378Z,101197.31
2023-02-22T12:30:04.449Z,101196.28
2023-02-22T12:32:42.680Z,101197.28
